sensor_id;sensor_type;location;lat;lon;timestamp;temperature;humidity
60234;DHT22;49514;43.538;-5.708;2023-03-23T00:00:22;15.20;99.90
60234;DHT22;49514;43.538;-5.708;2023-03-23T00:02:48;15.20;99.90
60234;DHT22;49514;43.538;-5.708;2023-03-23T00:05:15;15.20;99.90
60234;DHT22;49514;43.538;-5.708;2023-03-23T00:07:42;15.20;99.90
60234;DHT22;49514;43.538;-5.708;2023-03-23T00:10:11;15.20;99.90
60234;DHT22;49514;43.538;-5.708;2023-03-23T00:12:38;15.20;99.90
60234;DHT22;49514;43.538;-5.708;2023-03-23T00:15:09;15.20;99.90
60234;DHT22;49514;43.538;-5.708;2023-03-23T00:17:39;15.20;99.90
60234;DHT22;49514;43.538;-5.708;2023-03-23T00:20:10;15.20;99.90
60234;DHT22;49514;43.538;-5.708;2023-03-23T00:22:38;15.10;99.90
60234;DHT22;49514;43.538;-5.708;2023-03-23T00:25:07;15.10;99.90
60234;DHT22;49514;43.538;-5.708;2023-03-23T00:27:34;15.00;99.90
60234;DHT22;49514;43.538;-5.708;2023-03-23T00:30:01;15.00;99.90
60234;DHT22;49514;43.538;-5.708;2023-03-23T00:32:28;14.90;99.90
60234;DHT22;49514;43.538;-5.708;2023-03-23T00:34:57;14.90;99.90
60234;DHT22;49514;43.538;-5.708;2023-03-23T00:37:29;14.80;99.90
60234;DHT22;49514;43.538;-5.708;2023-03-23T00:39:56;14.90;99.90
60234;DHT22;49514;43.538;-5.708;2023-03-23T00:42:23;14.70;99.90
60234;DHT22;49514;43.538;-5.708;2023-03-23T00:44:51;14.70;99.90
60234;DHT22;49514;43.538;-5.708;2023-03-23T00:47:26;14.70;99.90
60234;DHT22;49514;43.538;-5.708;2023-03-23T00:49:53;14.60;99.90
60234;DHT22;49514;43.538;-5.708;2023-03-23T00:52:22;14.50;99.90
60234;DHT22;49514;43.538;-5.708;2023-03-23T00:54:49;14.50;99.90
60234;DHT22;49514;43.538;-5.708;2023-03-23T00:57:16;14.40;99.90
60234;DHT22;49514;43.538;-5.708;2023-03-23T00:59:44;14.30;99.90
60234;DHT22;49514;43.538;-5.708;2023-03-23T01:02:10;14.30;99.90
60234;DHT22;49514;43.538;-5.708;2023-03-23T01:04:40;14.20;99.90
60234;DHT22;49514;43.538;-5.708;2023-03-23T01:07:11;14.20;99.90
60234;DHT22;49514;43.538;-5.708;2023-03-23T01:09:44;14.10;99.90
60234;DHT22;49514;43.538;-5.708;2023-03-23T01:12:12;14.10;99.90
60234;DHT22;49514;43.538;-5.708;2023-03-23T01:14:40;14.10;99.90
60234;DHT22;49514;43.538;-5.708;2023-03-23T01:17:07;14.10;99.90
60234;DHT22;49514;43.538;-5.708;2023-03-23T01:19:35;14.00;99.90
60234;DHT22;49514;43.538;-5.708;2023-03-23T01:22:01;14.00;99.90
60234;DHT22;49514;43.538;-5.708;2023-03-23T01:24:28;13.90;99.90
60234;DHT22;49514;43.538;-5.708;2023-03-23T01:26:54;14.00;99.90
60234;DHT22;49514;43.538;-5.708;2023-03-23T01:29:22;13.90;99.90
60234;DHT22;49514;43.538;-5.708;2023-03-23T01:31:49;13.90;99.90
60234;DHT22;49514;43.538;-5.708;2023-03-23T01:34:16;13.90;99.90
60234;DHT22;49514;43.538;-5.708;2023-03-23T01:36:43;13.80;99.90
60234;DHT22;49514;43.538;-5.708;2023-03-23T01:39:10;13.80;99.90
60234;DHT22;49514;43.538;-5.708;2023-03-23T01:41:37;13.80;99.90
60234;DHT22;49514;43.538;-5.708;2023-03-23T01:46:54;13.70;99.90
60234;DHT22;49514;43.538;-5.708;2023-03-23T01:49:25;13.70;99.90
60234;DHT22;49514;43.538;-5.708;2023-03-23T01:51:59;13.60;99.90
60234;DHT22;49514;43.538;-5.708;2023-03-23T01:54:28;13.70;99.90
60234;DHT22;49514;43.538;-5.708;2023-03-23T01:57:00;13.60;99.90
60234;DHT22;49514;43.538;-5.708;2023-03-23T01:59:29;13.60;99.90
60234;DHT22;49514;43.538;-5.708;2023-03-23T02:02:17;13.50;99.90
60234;DHT22;49514;43.538;-5.708;2023-03-23T02:04:46;13.50;99.90
60234;DHT22;49514;43.538;-5.708;2023-03-23T02:07:15;13.50;99.90
60234;DHT22;49514;43.538;-5.708;2023-03-23T02:09:43;13.50;99.90
60234;DHT22;49514;43.538;-5.708;2023-03-23T02:12:10;13.40;99.90
60234;DHT22;49514;43.538;-5.708;2023-03-23T02:14:38;13.40;99.90
60234;DHT22;49514;43.538;-5.708;2023-03-23T02:23:07;13.30;99.90
60234;DHT22;49514;43.538;-5.708;2023-03-23T02:26:32;13.30;99.90
60234;DHT22;49514;43.538;-5.708;2023-03-23T02:31:52;13.30;99.90
60234;DHT22;49514;43.538;-5.708;2023-03-23T02:34:30;13.20;99.90
60234;DHT22;49514;43.538;-5.708;2023-03-23T02:37:05;13.20;99.90
60234;DHT22;49514;43.538;-5.708;2023-03-23T02:39:47;13.20;99.90
60234;DHT22;49514;43.538;-5.708;2023-03-23T02:42:28;13.20;99.90
60234;DHT22;49514;43.538;-5.708;2023-03-23T02:44:57;13.10;99.90
60234;DHT22;49514;43.538;-5.708;2023-03-23T02:47:27;13.10;99.90
60234;DHT22;49514;43.538;-5.708;2023-03-23T02:49:55;13.10;99.90
60234;DHT22;49514;43.538;-5.708;2023-03-23T02:52:26;13.10;99.90
60234;DHT22;49514;43.538;-5.708;2023-03-23T02:54:55;13.10;99.90
60234;DHT22;49514;43.538;-5.708;2023-03-23T02:57:23;13.10;99.90
60234;DHT22;49514;43.538;-5.708;2023-03-23T02:59:53;13.00;99.90
60234;DHT22;49514;43.538;-5.708;2023-03-23T03:02:25;13.00;99.90
60234;DHT22;49514;43.538;-5.708;2023-03-23T03:06:09;13.00;99.90
60234;DHT22;49514;43.538;-5.708;2023-03-23T03:08:04;13.00;99.90
60234;DHT22;49514;43.538;-5.708;2023-03-23T03:10:44;13.10;99.90
60234;DHT22;49514;43.538;-5.708;2023-03-23T03:18:37;13.00;99.90
60234;DHT22;49514;43.538;-5.708;2023-03-23T03:21:08;13.00;99.90
60234;DHT22;49514;43.538;-5.708;2023-03-23T03:23:40;12.90;99.90
60234;DHT22;49514;43.538;-5.708;2023-03-23T03:26:11;12.90;99.90
60234;DHT22;49514;43.538;-5.708;2023-03-23T03:28:49;12.90;99.90
60234;DHT22;49514;43.538;-5.708;2023-03-23T03:31:22;12.90;99.90
60234;DHT22;49514;43.538;-5.708;2023-03-23T03:33:50;12.90;99.90
60234;DHT22;49514;43.538;-5.708;2023-03-23T03:36:24;12.90;99.90
60234;DHT22;49514;43.538;-5.708;2023-03-23T03:38:52;12.80;99.90
60234;DHT22;49514;43.538;-5.708;2023-03-23T03:41:20;12.80;99.90
60234;DHT22;49514;43.538;-5.708;2023-03-23T03:43:48;12.80;99.90
60234;DHT22;49514;43.538;-5.708;2023-03-23T03:46:14;12.80;99.90
60234;DHT22;49514;43.538;-5.708;2023-03-23T03:48:41;12.80;99.90
60234;DHT22;49514;43.538;-5.708;2023-03-23T03:51:08;12.70;99.90
60234;DHT22;49514;43.538;-5.708;2023-03-23T03:53:38;12.70;99.90
60234;DHT22;49514;43.538;-5.708;2023-03-23T03:56:05;12.70;99.90
60234;DHT22;49514;43.538;-5.708;2023-03-23T03:58:39;12.70;99.90
60234;DHT22;49514;43.538;-5.708;2023-03-23T04:01:41;12.70;99.90
60234;DHT22;49514;43.538;-5.708;2023-03-23T04:04:08;12.60;99.90
60234;DHT22;49514;43.538;-5.708;2023-03-23T04:06:36;12.70;99.90
60234;DHT22;49514;43.538;-5.708;2023-03-23T04:09:05;12.60;99.90
60234;DHT22;49514;43.538;-5.708;2023-03-23T04:11:36;12.60;99.90
60234;DHT22;49514;43.538;-5.708;2023-03-23T04:14:21;12.60;99.90
60234;DHT22;49514;43.538;-5.708;2023-03-23T04:16:48;12.60;99.90
60234;DHT22;49514;43.538;-5.708;2023-03-23T04:19:18;12.60;99.90
60234;DHT22;49514;43.538;-5.708;2023-03-23T04:21:45;12.60;99.90
60234;DHT22;49514;43.538;-5.708;2023-03-23T04:24:16;12.60;99.90
60234;DHT22;49514;43.538;-5.708;2023-03-23T04:26:43;12.60;99.90
60234;DHT22;49514;43.538;-5.708;2023-03-23T04:29:20;12.60;99.90
60234;DHT22;49514;43.538;-5.708;2023-03-23T04:32:04;12.60;99.90
60234;DHT22;49514;43.538;-5.708;2023-03-23T04:34:42;12.60;99.90
60234;DHT22;49514;43.538;-5.708;2023-03-23T04:37:10;12.70;99.90
60234;DHT22;49514;43.538;-5.708;2023-03-23T04:39:37;12.70;99.90
60234;DHT22;49514;43.538;-5.708;2023-03-23T04:42:06;12.70;99.90
60234;DHT22;49514;43.538;-5.708;2023-03-23T04:44:51;12.80;99.90
60234;DHT22;49514;43.538;-5.708;2023-03-23T04:47:25;12.80;99.90
60234;DHT22;49514;43.538;-5.708;2023-03-23T04:49:57;12.90;99.90
60234;DHT22;49514;43.538;-5.708;2023-03-23T04:52:33;12.90;99.90
60234;DHT22;49514;43.538;-5.708;2023-03-23T04:55:06;12.90;99.90
60234;DHT22;49514;43.538;-5.708;2023-03-23T04:57:35;13.00;99.90
60234;DHT22;49514;43.538;-5.708;2023-03-23T05:00:41;13.00;99.90
60234;DHT22;49514;43.538;-5.708;2023-03-23T05:03:11;13.00;99.90
60234;DHT22;49514;43.538;-5.708;2023-03-23T05:05:37;13.00;99.90
60234;DHT22;49514;43.538;-5.708;2023-03-23T05:08:07;13.10;99.90
60234;DHT22;49514;43.538;-5.708;2023-03-23T05:10:40;13.00;99.90
60234;DHT22;49514;43.538;-5.708;2023-03-23T05:13:11;13.00;99.90
60234;DHT22;49514;43.538;-5.708;2023-03-23T05:15:38;13.10;99.90
60234;DHT22;49514;43.538;-5.708;2023-03-23T05:18:06;13.00;99.90
60234;DHT22;49514;43.538;-5.708;2023-03-23T05:20:33;13.00;99.90
60234;DHT22;49514;43.538;-5.708;2023-03-23T05:23:09;13.00;99.90
60234;DHT22;49514;43.538;-5.708;2023-03-23T05:25:36;12.90;99.90
60234;DHT22;49514;43.538;-5.708;2023-03-23T05:28:18;12.90;99.90
60234;DHT22;49514;43.538;-5.708;2023-03-23T05:30:54;12.90;99.90
60234;DHT22;49514;43.538;-5.708;2023-03-23T05:33:24;12.90;99.90
60234;DHT22;49514;43.538;-5.708;2023-03-23T05:36:04;12.80;99.90
60234;DHT22;49514;43.538;-5.708;2023-03-23T05:38:43;12.90;99.90
60234;DHT22;49514;43.538;-5.708;2023-03-23T05:41:12;12.90;99.90
60234;DHT22;49514;43.538;-5.708;2023-03-23T05:43:41;12.90;99.90
60234;DHT22;49514;43.538;-5.708;2023-03-23T05:46:16;12.90;99.90
60234;DHT22;49514;43.538;-5.708;2023-03-23T05:48:43;12.90;99.90
60234;DHT22;49514;43.538;-5.708;2023-03-23T05:51:15;12.90;99.90
60234;DHT22;49514;43.538;-5.708;2023-03-23T05:53:43;13.00;99.90
60234;DHT22;49514;43.538;-5.708;2023-03-23T05:56:12;13.00;99.90
60234;DHT22;49514;43.538;-5.708;2023-03-23T05:59:11;12.90;99.90
60234;DHT22;49514;43.538;-5.708;2023-03-23T06:01:39;12.90;99.90
60234;DHT22;49514;43.538;-5.708;2023-03-23T06:04:06;12.90;99.90
60234;DHT22;49514;43.538;-5.708;2023-03-23T06:06:51;12.90;99.90
60234;DHT22;49514;43.538;-5.708;2023-03-23T06:09:18;12.90;99.90
60234;DHT22;49514;43.538;-5.708;2023-03-23T06:12:04;12.90;99.90
60234;DHT22;49514;43.538;-5.708;2023-03-23T06:15:07;12.90;99.90
60234;DHT22;49514;43.538;-5.708;2023-03-23T06:17:53;12.80;99.90
60234;DHT22;49514;43.538;-5.708;2023-03-23T06:20:27;12.80;99.90
60234;DHT22;49514;43.538;-5.708;2023-03-23T06:22:54;12.80;99.90
60234;DHT22;49514;43.538;-5.708;2023-03-23T06:25:30;12.80;99.90
60234;DHT22;49514;43.538;-5.708;2023-03-23T06:27:57;12.90;99.90
60234;DHT22;49514;43.538;-5.708;2023-03-23T06:30:25;12.90;99.90
60234;DHT22;49514;43.538;-5.708;2023-03-23T06:32:53;12.90;99.90
60234;DHT22;49514;43.538;-5.708;2023-03-23T06:35:37;12.90;99.90
60234;DHT22;49514;43.538;-5.708;2023-03-23T06:38:32;12.90;99.90
60234;DHT22;49514;43.538;-5.708;2023-03-23T06:40:59;12.90;99.90
60234;DHT22;49514;43.538;-5.708;2023-03-23T06:43:27;12.90;99.90
60234;DHT22;49514;43.538;-5.708;2023-03-23T06:46:17;12.90;99.90
60234;DHT22;49514;43.538;-5.708;2023-03-23T06:48:54;12.90;99.90
60234;DHT22;49514;43.538;-5.708;2023-03-23T06:51:28;12.90;99.90
60234;DHT22;49514;43.538;-5.708;2023-03-23T06:53:56;13.00;99.90
60234;DHT22;49514;43.538;-5.708;2023-03-23T06:56:25;13.00;99.90
60234;DHT22;49514;43.538;-5.708;2023-03-23T06:58:53;13.00;99.90
60234;DHT22;49514;43.538;-5.708;2023-03-23T07:01:20;13.00;99.90
60234;DHT22;49514;43.538;-5.708;2023-03-23T07:03:55;13.00;99.90
60234;DHT22;49514;43.538;-5.708;2023-03-23T07:06:31;13.00;99.90
60234;DHT22;49514;43.538;-5.708;2023-03-23T07:09:00;13.10;99.90
60234;DHT22;49514;43.538;-5.708;2023-03-23T07:11:29;13.10;99.90
60234;DHT22;49514;43.538;-5.708;2023-03-23T07:14:00;13.20;99.90
60234;DHT22;49514;43.538;-5.708;2023-03-23T07:16:27;13.20;99.90
60234;DHT22;49514;43.538;-5.708;2023-03-23T07:18:54;13.30;99.90
60234;DHT22;49514;43.538;-5.708;2023-03-23T07:21:20;13.30;99.90
60234;DHT22;49514;43.538;-5.708;2023-03-23T07:23:48;13.40;99.90
60234;DHT22;49514;43.538;-5.708;2023-03-23T07:26:22;13.50;99.90
60234;DHT22;49514;43.538;-5.708;2023-03-23T07:28:53;13.50;99.90
60234;DHT22;49514;43.538;-5.708;2023-03-23T07:31:37;13.50;99.90
60234;DHT22;49514;43.538;-5.708;2023-03-23T07:34:04;13.50;99.90
60234;DHT22;49514;43.538;-5.708;2023-03-23T07:36:43;13.60;99.90
60234;DHT22;49514;43.538;-5.708;2023-03-23T07:39:12;13.60;99.90
60234;DHT22;49514;43.538;-5.708;2023-03-23T07:41:39;13.70;99.90
60234;DHT22;49514;43.538;-5.708;2023-03-23T07:44:15;13.70;99.90
60234;DHT22;49514;43.538;-5.708;2023-03-23T07:46:43;13.80;99.90
60234;DHT22;49514;43.538;-5.708;2023-03-23T07:49:13;13.80;99.90
60234;DHT22;49514;43.538;-5.708;2023-03-23T07:51:45;13.90;99.90
60234;DHT22;49514;43.538;-5.708;2023-03-23T07:54:14;14.00;99.90
60234;DHT22;49514;43.538;-5.708;2023-03-23T07:57:08;14.10;99.90
60234;DHT22;49514;43.538;-5.708;2023-03-23T07:59:38;14.30;99.90
60234;DHT22;49514;43.538;-5.708;2023-03-23T08:02:07;14.30;99.90
60234;DHT22;49514;43.538;-5.708;2023-03-23T08:05:03;14.50;99.90
60234;DHT22;49514;43.538;-5.708;2023-03-23T08:08:00;14.60;99.90
60234;DHT22;49514;43.538;-5.708;2023-03-23T08:10:54;14.70;99.90
60234;DHT22;49514;43.538;-5.708;2023-03-23T08:13:44;14.70;99.90
60234;DHT22;49514;43.538;-5.708;2023-03-23T08:16:30;14.80;99.90
60234;DHT22;49514;43.538;-5.708;2023-03-23T08:19:26;14.80;99.90
60234;DHT22;49514;43.538;-5.708;2023-03-23T08:22:03;14.90;99.90
60234;DHT22;49514;43.538;-5.708;2023-03-23T08:24:53;15.00;99.90
60234;DHT22;49514;43.538;-5.708;2023-03-23T08:27:48;15.20;99.90
60234;DHT22;49514;43.538;-5.708;2023-03-23T08:30:38;15.40;99.90
60234;DHT22;49514;43.538;-5.708;2023-03-23T08:33:17;15.70;99.90
60234;DHT22;49514;43.538;-5.708;2023-03-23T08:36:04;16.00;99.90
60234;DHT22;49514;43.538;-5.708;2023-03-23T08:38:45;16.20;99.90
60234;DHT22;49514;43.538;-5.708;2023-03-23T08:41:50;16.30;99.90
60234;DHT22;49514;43.538;-5.708;2023-03-23T08:44:37;16.40;99.90
60234;DHT22;49514;43.538;-5.708;2023-03-23T08:47:24;16.40;99.90
60234;DHT22;49514;43.538;-5.708;2023-03-23T08:50:25;16.30;99.90
60234;DHT22;49514;43.538;-5.708;2023-03-23T08:53:30;16.30;99.90
60234;DHT22;49514;43.538;-5.708;2023-03-23T08:56:35;16.30;99.90
60234;DHT22;49514;43.538;-5.708;2023-03-23T08:59:31;16.40;99.90
60234;DHT22;49514;43.538;-5.708;2023-03-23T09:02:06;16.30;99.90
60234;DHT22;49514;43.538;-5.708;2023-03-23T09:04:41;16.40;99.90
60234;DHT22;49514;43.538;-5.708;2023-03-23T09:07:27;16.50;99.90
60234;DHT22;49514;43.538;-5.708;2023-03-23T09:09:54;16.60;99.90
60234;DHT22;49514;43.538;-5.708;2023-03-23T09:12:21;16.60;99.90
60234;DHT22;49514;43.538;-5.708;2023-03-23T09:14:47;16.70;99.90
60234;DHT22;49514;43.538;-5.708;2023-03-23T09:17:14;16.80;99.90
60234;DHT22;49514;43.538;-5.708;2023-03-23T09:19:41;16.80;99.90
60234;DHT22;49514;43.538;-5.708;2023-03-23T09:22:08;16.80;99.90
60234;DHT22;49514;43.538;-5.708;2023-03-23T09:24:34;16.90;99.90
60234;DHT22;49514;43.538;-5.708;2023-03-23T09:27:02;17.00;99.90
60234;DHT22;49514;43.538;-5.708;2023-03-23T09:29:28;17.10;99.90
60234;DHT22;49514;43.538;-5.708;2023-03-23T09:31:55;17.20;99.90
60234;DHT22;49514;43.538;-5.708;2023-03-23T09:34:22;17.30;99.90
60234;DHT22;49514;43.538;-5.708;2023-03-23T09:36:48;17.40;99.90
60234;DHT22;49514;43.538;-5.708;2023-03-23T09:39:15;17.50;99.90
60234;DHT22;49514;43.538;-5.708;2023-03-23T09:41:48;17.40;99.90
60234;DHT22;49514;43.538;-5.708;2023-03-23T09:47:20;17.60;99.90
60234;DHT22;49514;43.538;-5.708;2023-03-23T09:50:02;17.80;99.90
60234;DHT22;49514;43.538;-5.708;2023-03-23T09:52:53;17.80;99.90
60234;DHT22;49514;43.538;-5.708;2023-03-23T09:55:18;17.80;99.90
60234;DHT22;49514;43.538;-5.708;2023-03-23T10:00:23;18.00;99.90
60234;DHT22;49514;43.538;-5.708;2023-03-23T10:03:00;18.20;99.90
60234;DHT22;49514;43.538;-5.708;2023-03-23T10:05:33;18.40;99.90
60234;DHT22;49514;43.538;-5.708;2023-03-23T10:08:01;18.60;99.90
60234;DHT22;49514;43.538;-5.708;2023-03-23T10:13:19;18.80;99.90
60234;DHT22;49514;43.538;-5.708;2023-03-23T10:15:48;18.90;99.90
60234;DHT22;49514;43.538;-5.708;2023-03-23T10:18:17;19.00;99.90
60234;DHT22;49514;43.538;-5.708;2023-03-23T10:20:54;19.20;99.90
60234;DHT22;49514;43.538;-5.708;2023-03-23T10:28:50;19.60;99.90
60234;DHT22;49514;43.538;-5.708;2023-03-23T10:31:20;19.60;99.90
60234;DHT22;49514;43.538;-5.708;2023-03-23T10:33:49;19.70;99.90
60234;DHT22;49514;43.538;-5.708;2023-03-23T10:41:12;19.80;99.90
60234;DHT22;49514;43.538;-5.708;2023-03-23T10:43:39;19.70;99.90
60234;DHT22;49514;43.538;-5.708;2023-03-23T10:46:11;19.70;99.90
60234;DHT22;49514;43.538;-5.708;2023-03-23T10:48:40;19.60;99.90
60234;DHT22;49514;43.538;-5.708;2023-03-23T10:51:09;19.60;99.90
60234;DHT22;49514;43.538;-5.708;2023-03-23T10:53:37;19.70;99.90
60234;DHT22;49514;43.538;-5.708;2023-03-23T10:56:04;19.90;99.90
60234;DHT22;49514;43.538;-5.708;2023-03-23T10:58:32;19.90;99.90
60234;DHT22;49514;43.538;-5.708;2023-03-23T11:01:00;20.10;99.90
60234;DHT22;49514;43.538;-5.708;2023-03-23T11:03:43;20.40;99.90
60234;DHT22;49514;43.538;-5.708;2023-03-23T11:06:12;20.60;99.90
60234;DHT22;49514;43.538;-5.708;2023-03-23T11:09:03;20.80;99.90
60234;DHT22;49514;43.538;-5.708;2023-03-23T11:11:37;21.10;99.90
60234;DHT22;49514;43.538;-5.708;2023-03-23T11:14:20;21.30;99.90
60234;DHT22;49514;43.538;-5.708;2023-03-23T11:16:51;21.30;99.90
60234;DHT22;49514;43.538;-5.708;2023-03-23T11:19:26;21.60;99.90
60234;DHT22;49514;43.538;-5.708;2023-03-23T11:21:53;21.70;99.90
60234;DHT22;49514;43.538;-5.708;2023-03-23T11:24:24;21.80;99.90
60234;DHT22;49514;43.538;-5.708;2023-03-23T11:26:51;21.90;99.90
60234;DHT22;49514;43.538;-5.708;2023-03-23T11:29:23;22.10;99.90
60234;DHT22;49514;43.538;-5.708;2023-03-23T11:31:51;22.20;99.90
60234;DHT22;49514;43.538;-5.708;2023-03-23T11:34:24;22.10;99.90
60234;DHT22;49514;43.538;-5.708;2023-03-23T11:37:11;22.40;99.90
60234;DHT22;49514;43.538;-5.708;2023-03-23T11:42:25;22.20;99.90
60234;DHT22;49514;43.538;-5.708;2023-03-23T11:47:45;22.20;99.90
60234;DHT22;49514;43.538;-5.708;2023-03-23T11:50:27;22.00;99.90
60234;DHT22;49514;43.538;-5.708;2023-03-23T11:53:02;21.80;99.90
60234;DHT22;49514;43.538;-5.708;2023-03-23T11:56:06;21.60;99.90
60234;DHT22;49514;43.538;-5.708;2023-03-23T11:58:22;21.50;99.90
60234;DHT22;49514;43.538;-5.708;2023-03-23T12:00:51;21.50;99.90
60234;DHT22;49514;43.538;-5.708;2023-03-23T12:03:21;21.50;99.90
60234;DHT22;49514;43.538;-5.708;2023-03-23T12:06:25;21.50;99.90
60234;DHT22;49514;43.538;-5.708;2023-03-23T12:08:47;21.50;99.90
60234;DHT22;49514;43.538;-5.708;2023-03-23T12:24:51;20.70;99.90
60234;DHT22;49514;43.538;-5.708;2023-03-23T12:27:32;20.60;99.90
60234;DHT22;49514;43.538;-5.708;2023-03-23T12:32:51;20.40;99.90
60234;DHT22;49514;43.538;-5.708;2023-03-23T12:35:23;20.30;99.90
60234;DHT22;49514;43.538;-5.708;2023-03-23T12:37:55;20.20;99.90
60234;DHT22;49514;43.538;-5.708;2023-03-23T12:43:13;20.10;99.90
60234;DHT22;49514;43.538;-5.708;2023-03-23T12:48:34;20.00;99.90
60234;DHT22;49514;43.538;-5.708;2023-03-23T12:56:54;19.90;99.90
60234;DHT22;49514;43.538;-5.708;2023-03-23T12:59:16;19.90;99.90
60234;DHT22;49514;43.538;-5.708;2023-03-23T13:01:45;19.80;99.90
60234;DHT22;49514;43.538;-5.708;2023-03-23T13:04:19;19.80;99.90
60234;DHT22;49514;43.538;-5.708;2023-03-23T13:06:47;20.00;99.90
60234;DHT22;49514;43.538;-5.708;2023-03-23T13:09:36;20.10;99.90
60234;DHT22;49514;43.538;-5.708;2023-03-23T13:12:05;20.30;99.90
60234;DHT22;49514;43.538;-5.708;2023-03-23T13:17:51;20.80;99.90
60234;DHT22;49514;43.538;-5.708;2023-03-23T13:20:32;20.90;99.90
60234;DHT22;49514;43.538;-5.708;2023-03-23T13:25:50;20.90;99.90
60234;DHT22;49514;43.538;-5.708;2023-03-23T13:28:22;21.00;99.90
60234;DHT22;49514;43.538;-5.708;2023-03-23T13:31:03;20.80;99.90
60234;DHT22;49514;43.538;-5.708;2023-03-23T13:33:34;20.70;99.90
60234;DHT22;49514;43.538;-5.708;2023-03-23T13:36:11;20.50;99.90
60234;DHT22;49514;43.538;-5.708;2023-03-23T13:38:45;20.50;99.90
60234;DHT22;49514;43.538;-5.708;2023-03-23T13:41:17;20.60;99.90
60234;DHT22;49514;43.538;-5.708;2023-03-23T13:43:44;20.80;99.90
60234;DHT22;49514;43.538;-5.708;2023-03-23T13:49:50;21.20;99.90
60234;DHT22;49514;43.538;-5.708;2023-03-23T13:51:52;21.30;99.90
60234;DHT22;49514;43.538;-5.708;2023-03-23T13:54:31;21.30;99.90
60234;DHT22;49514;43.538;-5.708;2023-03-23T13:57:02;21.30;99.90
60234;DHT22;49514;43.538;-5.708;2023-03-23T13:59:47;21.30;99.90
60234;DHT22;49514;43.538;-5.708;2023-03-23T14:02:36;21.20;99.90
60234;DHT22;49514;43.538;-5.708;2023-03-23T14:05:31;21.20;99.90
60234;DHT22;49514;43.538;-5.708;2023-03-23T14:08:01;21.20;99.90
60234;DHT22;49514;43.538;-5.708;2023-03-23T14:10:53;21.30;99.90
60234;DHT22;49514;43.538;-5.708;2023-03-23T14:13:40;21.40;99.90
60234;DHT22;49514;43.538;-5.708;2023-03-23T14:16:15;21.70;99.90
60234;DHT22;49514;43.538;-5.708;2023-03-23T14:18:47;22.30;99.90
60234;DHT22;49514;43.538;-5.708;2023-03-23T14:21:17;22.70;99.90
60234;DHT22;49514;43.538;-5.708;2023-03-23T14:23:47;22.80;99.90
60234;DHT22;49514;43.538;-5.708;2023-03-23T14:26:19;22.70;99.90
60234;DHT22;49514;43.538;-5.708;2023-03-23T14:28:50;22.70;99.90
60234;DHT22;49514;43.538;-5.708;2023-03-23T14:31:24;22.50;99.90
60234;DHT22;49514;43.538;-5.708;2023-03-23T14:33:53;22.50;99.90
60234;DHT22;49514;43.538;-5.708;2023-03-23T14:36:30;22.60;99.90
60234;DHT22;49514;43.538;-5.708;2023-03-23T14:41:27;22.20;99.90
60234;DHT22;49514;43.538;-5.708;2023-03-23T14:43:59;21.90;99.90
60234;DHT22;49514;43.538;-5.708;2023-03-23T14:46:26;21.50;99.90
60234;DHT22;49514;43.538;-5.708;2023-03-23T14:48:52;21.30;99.90
60234;DHT22;49514;43.538;-5.708;2023-03-23T14:51:20;21.10;99.90
60234;DHT22;49514;43.538;-5.708;2023-03-23T14:53:47;21.00;99.90
60234;DHT22;49514;43.538;-5.708;2023-03-23T14:56:20;20.80;99.90
60234;DHT22;49514;43.538;-5.708;2023-03-23T14:58:50;20.70;99.90
60234;DHT22;49514;43.538;-5.708;2023-03-23T15:01:27;20.60;99.90
60234;DHT22;49514;43.538;-5.708;2023-03-23T15:04:10;20.50;99.90
60234;DHT22;49514;43.538;-5.708;2023-03-23T15:06:40;20.50;99.90
60234;DHT22;49514;43.538;-5.708;2023-03-23T15:09:12;20.70;99.90
60234;DHT22;49514;43.538;-5.708;2023-03-23T15:11:40;20.80;99.90
60234;DHT22;49514;43.538;-5.708;2023-03-23T15:14:19;20.80;99.90
60234;DHT22;49514;43.538;-5.708;2023-03-23T15:16:48;20.80;99.90
60234;DHT22;49514;43.538;-5.708;2023-03-23T15:19:22;20.90;99.90
60234;DHT22;49514;43.538;-5.708;2023-03-23T15:22:03;20.90;99.90
60234;DHT22;49514;43.538;-5.708;2023-03-23T15:24:38;20.80;99.90
60234;DHT22;49514;43.538;-5.708;2023-03-23T15:27:25;20.90;99.90
60234;DHT22;49514;43.538;-5.708;2023-03-23T15:29:56;21.00;99.90
60234;DHT22;49514;43.538;-5.708;2023-03-23T15:32:29;21.10;99.90
60234;DHT22;49514;43.538;-5.708;2023-03-23T15:34:58;20.90;99.90
60234;DHT22;49514;43.538;-5.708;2023-03-23T15:37:31;20.80;99.90
60234;DHT22;49514;43.538;-5.708;2023-03-23T15:39:59;20.70;99.90
60234;DHT22;49514;43.538;-5.708;2023-03-23T15:42:33;20.60;99.90
60234;DHT22;49514;43.538;-5.708;2023-03-23T15:45:26;20.50;99.90
60234;DHT22;49514;43.538;-5.708;2023-03-23T15:48:03;20.20;99.90
60234;DHT22;49514;43.538;-5.708;2023-03-23T15:50:34;20.00;99.90
60234;DHT22;49514;43.538;-5.708;2023-03-23T15:53:22;20.00;99.90
60234;DHT22;49514;43.538;-5.708;2023-03-23T15:55:50;19.90;99.90
60234;DHT22;49514;43.538;-5.708;2023-03-23T15:58:17;19.80;99.90
60234;DHT22;49514;43.538;-5.708;2023-03-23T16:00:45;19.80;99.90
60234;DHT22;49514;43.538;-5.708;2023-03-23T16:03:24;19.70;99.90
60234;DHT22;49514;43.538;-5.708;2023-03-23T16:05:56;19.70;99.90
60234;DHT22;49514;43.538;-5.708;2023-03-23T16:08:25;19.70;99.90
60234;DHT22;49514;43.538;-5.708;2023-03-23T16:10:52;19.60;99.90
60234;DHT22;49514;43.538;-5.708;2023-03-23T16:13:19;19.60;99.90
60234;DHT22;49514;43.538;-5.708;2023-03-23T16:15:46;19.50;99.90
60234;DHT22;49514;43.538;-5.708;2023-03-23T16:18:16;19.50;99.90
60234;DHT22;49514;43.538;-5.708;2023-03-23T16:20:43;19.40;99.90
60234;DHT22;49514;43.538;-5.708;2023-03-23T16:23:09;19.20;99.90
60234;DHT22;49514;43.538;-5.708;2023-03-23T16:25:36;19.10;99.90
60234;DHT22;49514;43.538;-5.708;2023-03-23T16:28:03;19.10;99.90
60234;DHT22;49514;43.538;-5.708;2023-03-23T16:30:31;19.00;99.90
60234;DHT22;49514;43.538;-5.708;2023-03-23T16:32:58;19.10;99.90
60234;DHT22;49514;43.538;-5.708;2023-03-23T16:35:24;19.50;99.90
60234;DHT22;49514;43.538;-5.708;2023-03-23T16:37:52;19.70;99.90
60234;DHT22;49514;43.538;-5.708;2023-03-23T16:40:19;19.70;99.90
60234;DHT22;49514;43.538;-5.708;2023-03-23T16:42:46;19.60;99.90
60234;DHT22;49514;43.538;-5.708;2023-03-23T16:45:13;19.40;99.90
60234;DHT22;49514;43.538;-5.708;2023-03-23T16:47:40;19.30;99.90
60234;DHT22;49514;43.538;-5.708;2023-03-23T16:50:08;19.30;99.90
60234;DHT22;49514;43.538;-5.708;2023-03-23T16:52:37;19.20;99.90
60234;DHT22;49514;43.538;-5.708;2023-03-23T16:55:04;19.20;99.90
60234;DHT22;49514;43.538;-5.708;2023-03-23T16:57:31;19.20;99.90
60234;DHT22;49514;43.538;-5.708;2023-03-23T16:59:59;19.20;99.90
60234;DHT22;49514;43.538;-5.708;2023-03-23T17:02:26;19.10;99.90
60234;DHT22;49514;43.538;-5.708;2023-03-23T17:04:52;19.00;99.90
60234;DHT22;49514;43.538;-5.708;2023-03-23T17:07:18;18.90;99.90
60234;DHT22;49514;43.538;-5.708;2023-03-23T17:09:45;18.80;99.90
60234;DHT22;49514;43.538;-5.708;2023-03-23T17:12:11;18.70;99.90